Latest Coastal Weather Observations for Swanbourne

IDW60701

Issued at 12:25 pm WST Saturday 2 August 2014 (issued every 10 minutes, with the page automatically refreshed every 10 minutes)

About coastal observations | Map of coastal stations | Coastal observations for WA | Marine services | Other Formats
Station Details ID: 009215 Name: SWANBOURNE Lat: -31.96 Lon: 115.76 Height: 40.96 m
Data from the previous 72 hours. | See also: Recent months at Swanbourne
Date/Time
WST
Temp

°C
Wind Pressure Rain
since 9am
mm
Weather Cloud Vis
km
Sea
Height
m
Swell
Dir
 
Speed
knots
Gust
knots
hPa Trend Height
m
Period
s
Dir
02/12:00pm 18.6 WSW 4 6 - - 0.0 - - - - - - -
02/11:30am 18.1 W 2 3 - - 0.0 - - - - - - -
02/11:00am 18.8 NW 1 2 - - 0.0 - - - - - - -
02/10:30am 18.2 E 2 3 - - 0.0 - - - - - - -
02/10:00am 16.5 ENE 3 4 - - 0.0 - - - - - - -
02/09:30am 14.5 ENE 5 8 - - 0.0 - - - - - - -
02/09:00am 12.9 ENE 4 7 - - 0.0 - - - - - - -
02/08:30am 11.3 ENE 4 6 - - 0.0 - - - - - - -
02/08:00am 9.4 E 6 7 - - 0.0 - - - - - - -
02/07:30am 8.6 ENE 6 7 - - 0.0 - - - - - - -
02/07:00am 9.1 E 5 6 - - 0.0 - - - - - - -
02/06:30am 9.0 E 5 6 - - 0.0 - - - - - - -
02/06:00am 8.8 E 5 6 - - 0.0 - - - - - - -
02/05:30am 9.2 E 5 7 - - 0.0 - - - - - - -
02/05:00am 9.4 ENE 6 7 - - 0.0 - - - - - - -
02/04:30am 9.1 ENE 5 6 - - 0.0 - - - - - - -
02/04:00am 8.7 ENE 5 6 - - 0.0 - - - - - - -
02/03:30am 8.9 ENE 5 6 - - 0.0 - - - - - - -
02/03:00am 9.4 ENE 1 3 - - 0.0 - - - - - - -
02/02:30am 8.9 E 3 4 - - 0.0 - - - - - - -
02/02:00am 8.9 SE 3 5 - - 0.0 - - - - - - -
02/01:30am 9.0 E 7 9 - - 0.0 - - - - - - -
02/01:00am 9.0 E 6 8 - - 0.0 - - - - - - -
02/12:30am 9.1 E 6 8 - - 0.0 - - - - - - -
02/12:00am 9.3 E 6 8 - - 0.0 - - - - - - -
 
Date/Time
WST
Temp

°C
Wind Pressure Rain
since 9am
mm
Weather Cloud Vis
km
Sea
Height
m
Swell
Dir
 
Speed
knots
Gust
knots
hPa Trend Height
m
Period
s
Dir
01/11:30pm 9.6 E 7 10 - - 0.0 - - - - - - -
01/11:00pm 9.9 ENE 7 10 - - 0.0 - - - - - - -
01/10:30pm 10.2 ENE 7 9 - - 0.0 - - - - - - -
01/10:00pm 10.0 ENE 7 9 - - 0.0 - - - - - - -
01/09:30pm 10.3 ENE 7 9 - - 0.0 - - - - - - -
01/09:00pm 10.4 E 6 7 - - 0.0 - - - - - - -
01/08:30pm 11.0 E 6 7 - - 0.0 - - - - - - -
01/08:00pm 11.2 E 6 7 - - 0.0 - - - - - - -
01/07:30pm 11.4 E 5 5 - - 0.0 - - - - - - -
01/07:00pm 11.9 E 5 6 - - 0.0 - - - - - - -
01/06:30pm 12.5 ENE 5 6 - - 0.0 - - - - - - -
01/06:00pm 13.1 E 5 6 - - 0.0 - - - - - - -
01/05:30pm 14.8 ENE 4 6 - - 0.0 - - - - - - -
01/05:00pm 16.4 ENE 4 7 - - 0.0 - - - - - - -
01/04:30pm 17.4 ENE 4 7 - - 0.0 - - - - - - -
01/04:00pm 17.8 ENE 5 9 - - 0.0 - - - - - - -
01/03:30pm 17.9 NE 6 11 - - 0.0 - - - - - - -
01/03:00pm 18.0 NE 7 13 - - 0.0 - - - - - - -
01/02:30pm 17.8 ENE 8 13 - - 0.0 - - - - - - -
01/02:00pm 17.5 ENE 8 13 - - 0.0 - - - - - - -
01/01:30pm 17.1 ENE 8 16 - - 0.0 - - - - - - -
01/01:00pm 16.8 ENE 9 18 - - 0.0 - - - - - - -
01/12:30pm 15.8 ENE 11 19 - - 0.0 - - - - - - -
01/12:00pm 15.6 ENE 10 17 - - 0.0 - - - - - - -
01/11:30am 14.6 ENE 11 19 - - 0.0 - - - - - - -
01/11:00am 13.5 ENE 13 20 - - 0.0 - - - - - - -
01/10:30am 12.8 ENE 12 20 - - 0.0 - - - - - - -
01/10:00am 11.7 E 14 21 - - 0.0 - - - - - - -
01/09:30am 11.0 E 13 20 - - 0.0 - - - - - - -
01/09:00am 9.9 E 12 17 - - 0.0 - - - - - - -
01/08:30am 8.6 E 12 17 - - 0.0 - - - - - - -
01/08:00am 7.3 E 12 18 - - 0.0 - - - - - - -
01/07:30am 6.5 E 11 16 - - 0.0 - - - - - - -
01/07:00am 6.5 E 12 19 - - 0.0 - - - - - - -
01/06:30am 6.5 E 12 17 - - 0.0 - - - - - - -
01/06:00am 6.7 E 12 17 - - 0.0 - - - - - - -
01/05:30am 6.6 E 11 15 - - 0.0 - - - - - - -
01/05:00am 6.8 E 10 16 - - 0.0 - - - - - - -
01/04:30am 6.4 E 8 13 - - 0.0 - - - - - - -
01/04:00am 5.8 E 8 12 - - 0.0 - - - - - - -
01/03:30am 5.4 E 6 7 - - 0.0 - - - - - - -
01/03:00am 5.6 ESE 5 7 - - 0.0 - - - - - - -
01/02:30am 5.9 ESE 5 6 - - 0.0 - - - - - - -
01/02:00am 6.1 ESE 4 5 - - 0.0 - - - - - - -
01/01:30am 6.1 ESE 4 5 - - 0.0 - - - - - - -
01/01:00am 6.2 E 3 4 - - 0.0 - - - - - - -
01/12:30am 6.7 E 4 5 - - 0.0 - - - - - - -
01/12:00am 7.1 E 3 3 - - 0.0 - - - - - - -
 
Date/Time
WST
Temp

°C
Wind Pressure Rain
since 9am
mm
Weather Cloud Vis
km
Sea
Height
m
Swell
Dir
 
Speed
knots
Gust
knots
hPa Trend Height
m
Period
s
Dir
31/11:30pm 7.8 ENE 2 3 - - 0.0 - - - - - - -
31/11:00pm 7.6 ENE 4 4 - - 0.0 - - - - - - -
31/10:30pm 7.8 ENE 3 4 - - 0.0 - - - - - - -
31/10:00pm 8.4 E 3 4 - - 0.0 - - - - - - -
31/09:30pm 8.9 E 4 6 - - 0.0 - - - - - - -
31/09:00pm 9.4 E 4 6 - - 0.0 - - - - - - -
31/08:30pm 9.7 E 5 7 - - 0.0 - - - - - - -
31/08:00pm 10.2 E 5 7 - - 0.0 - - - - - - -
31/07:30pm 10.3 E 4 6 - - 0.0 - - - - - - -
31/07:00pm 11.0 E 5 6 - - 0.0 - - - - - - -
31/06:30pm 11.5 E 5 7 - - 0.0 - - - - - - -
31/06:00pm 12.2 E 5 7 - - 0.0 - - - - - - -
31/05:30pm 13.1 E 4 7 - - 0.0 - - - - - - -
31/05:00pm 14.7 E 4 6 - - 0.0 - - - - - - -
31/04:30pm 15.7 SE 5 8 - - 0.0 - - - - - - -
31/04:00pm 15.9 S 2 7 - - 0.0 - - - - - - -
31/03:30pm 15.9 SSW 4 7 - - 0.0 - - - - - - -
31/03:00pm 16.5 ESE 3 6 - - 0.0 - - - - - - -
31/02:30pm 16.4 E 3 6 - - 0.0 - - - - - - -
31/02:00pm 15.6 SE 3 7 - - 0.0 - - - - - - -
31/01:30pm 15.7 SE 5 9 - - 0.0 - - - - - - -
31/01:00pm 15.1 E 4 7 - - 0.0 - - - - - - -
31/12:30pm 14.9 ESE 4 6 - - 0.0 - - - - - - -
31/12:00pm 14.6 SSE 6 11 - - 0.0 - - - - - - -
31/11:30am 14.4 SSE 5 7 - - 0.0 - - - - - - -
31/11:00am 13.3 SE 5 9 - - 0.0 - - - - - - -
31/10:30am 13.3 SE 5 9 - - 0.0 - - - - - - -
31/10:00am 12.0 SE 6 10 - - 0.0 - - - - - - -
31/09:30am 11.9 SSE 5 11 - - 0.0 - - - - - - -
31/09:00am 11.1 SE 5 9 - - 1.4 - - - - - - -
31/08:30am 10.4 SE 3 6 - - 1.4 - - - - - - -
31/08:00am 8.9 SE 3 4 - - 1.4 - - - - - - -
31/07:30am 8.7 SSE 4 6 - - 1.4 - - - - - - -
31/07:00am 8.6 SE 5 7 - - 1.4 - - - - - - -
31/06:30am 8.9 SE 6 9 - - 1.4 - - - - - - -
31/06:00am 9.3 SE 5 8 - - 1.4 - - - - - - -
31/05:30am 10.0 SE 7 11 - - 1.4 - - - - - - -
31/05:00am 10.3 SSE 8 11 - - 1.4 - - - - - - -
31/04:30am 10.9 SSE 8 13 - - 1.4 - - - - - - -
31/04:00am 11.6 SSE 11 17 - - 1.4 - - - - - - -
31/03:30am 11.9 SSE 11 17 - - 1.4 - - - - - - -
31/03:00am 12.3 SSE 11 16 - - 1.4 - - - - - - -
31/02:30am 12.6 SSE 9 14 - - 1.4 - - - - - - -
31/02:00am 13.0 S 8 13 - - 1.4 - - - - - - -
31/01:30am 13.4 SSE 7 12 - - 1.4 - - - - - - -
31/01:00am 13.6 SSE 4 5 - - 1.4 - - - - - - -
31/12:30am 14.2 SSE 6 9 - - 1.2 - - - - - - -
31/12:00am 14.6 SSW 5 8 - - 1.2 - - - - - - -
 
Date/Time
WST
Temp

°C
Wind Pressure Rain
since 9am
mm
Weather Cloud Vis
km
Sea
Height
m
Swell
Dir
 
Speed
knots
Gust
knots
hPa Trend Height
m
Period
s
Dir
30/11:30pm 14.8 S 7 13 - - 1.2 - - - - - - -
30/11:00pm 15.2 S 8 12 - - 1.2 - - - - - - -
30/10:30pm 15.5 SW 10 13 - - 1.2 - - - - - - -
30/10:00pm 15.3 SW 10 15 - - 1.0 - - - - - - -
30/09:30pm 15.0 SW 9 14 - - 1.0 - - - - - - -
30/09:00pm 15.0 SW 12 18 - - 1.0 Recent precip. - - - - - -
30/08:30pm 15.2 WSW 10 19 - - 1.0 - - - - - - -
30/08:00pm 15.2 W 11 16 - - 0.4 - - - - - - -
30/07:30pm 15.3 W 12 17 - - 0.4 - - - - - - -
30/07:00pm 16.5 W 13 20 - - 0.0 - - - - - - -
30/06:30pm 17.1 W 10 14 - - 0.0 - - - - - - -
30/06:00pm 16.6 W 9 13 - - 0.0 - - - - - - -
30/05:30pm 16.9 W 7 10 - - 0.0 - - - - - - -
30/05:00pm 17.3 W 9 14 - - 0.0 - - - - - - -
30/04:30pm 17.6 W 11 15 - - 0.0 - - - - - - -
30/04:00pm 18.8 W 11 17 - - 0.0 - - - - - - -
30/03:30pm 17.8 W 13 19 - - 0.0 - - - - - - -
30/03:00pm 17.7 W 11 17 - - 0.0 - - - - - - -
30/02:30pm 18.0 W 11 17 - - 0.0 - - - - - - -
30/02:00pm 18.4 W 11 16 - - 0.0 - - - - - - -
30/01:30pm 18.5 W 10 14 - - 0.0 - - - - - - -
30/01:00pm 17.6 WNW 10 14 - - 0.0 - - - - - - -
30/12:30pm 17.7 WNW 10 15 - - 0.0 - - - - - - -

Other Formats:

Comma delimited format used in spreadsheet applications
http://www.bom.gov.au/fwo/IDW60701/IDW60701.94614.axf

JavaScript Object Notation format (JSON) in row-major order
http://www.bom.gov.au/fwo/IDW60701/IDW60701.94614.json